sensor_id;sensor_type;location;lat;lon;timestamp;temperature;humidity
15630;DHT22;7914;50.842;0.166;2022-08-02T00:01:43;18.50;99.90
15630;DHT22;7914;50.842;0.166;2022-08-02T00:04:09;18.50;99.90
15630;DHT22;7914;50.842;0.166;2022-08-02T00:06:35;18.50;99.90
15630;DHT22;7914;50.842;0.166;2022-08-02T00:09:02;18.50;99.90
15630;DHT22;7914;50.842;0.166;2022-08-02T00:11:28;18.60;99.90
15630;DHT22;7914;50.842;0.166;2022-08-02T00:13:54;18.50;99.90
15630;DHT22;7914;50.842;0.166;2022-08-02T00:16:19;18.60;99.90
15630;DHT22;7914;50.842;0.166;2022-08-02T00:18:45;18.50;99.90
15630;DHT22;7914;50.842;0.166;2022-08-02T00:21:11;18.50;99.90
15630;DHT22;7914;50.842;0.166;2022-08-02T00:23:36;18.50;99.90
15630;DHT22;7914;50.842;0.166;2022-08-02T00:26:02;18.50;99.90
15630;DHT22;7914;50.842;0.166;2022-08-02T00:28:28;18.50;99.90
15630;DHT22;7914;50.842;0.166;2022-08-02T00:30:55;18.40;99.90
15630;DHT22;7914;50.842;0.166;2022-08-02T00:33:21;18.50;99.90
15630;DHT22;7914;50.842;0.166;2022-08-02T00:35:46;18.50;99.90
15630;DHT22;7914;50.842;0.166;2022-08-02T00:38:13;18.50;99.90
15630;DHT22;7914;50.842;0.166;2022-08-02T00:40:39;18.60;99.90
15630;DHT22;7914;50.842;0.166;2022-08-02T00:43:08;18.50;99.90
15630;DHT22;7914;50.842;0.166;2022-08-02T00:45:35;18.50;99.90
15630;DHT22;7914;50.842;0.166;2022-08-02T00:48:02;18.50;99.90
15630;DHT22;7914;50.842;0.166;2022-08-02T00:50:29;18.60;99.90
15630;DHT22;7914;50.842;0.166;2022-08-02T00:52:55;18.60;99.90
15630;DHT22;7914;50.842;0.166;2022-08-02T00:55:21;18.60;99.90
15630;DHT22;7914;50.842;0.166;2022-08-02T00:57:47;18.50;99.90
15630;DHT22;7914;50.842;0.166;2022-08-02T01:00:14;18.50;99.90
15630;DHT22;7914;50.842;0.166;2022-08-02T01:02:40;18.50;99.90
15630;DHT22;7914;50.842;0.166;2022-08-02T01:05:06;18.50;99.90
15630;DHT22;7914;50.842;0.166;2022-08-02T01:07:32;18.50;99.90
15630;DHT22;7914;50.842;0.166;2022-08-02T01:09:58;18.40;99.90
15630;DHT22;7914;50.842;0.166;2022-08-02T01:12:27;18.50;99.90
15630;DHT22;7914;50.842;0.166;2022-08-02T01:14:56;18.40;99.90
15630;DHT22;7914;50.842;0.166;2022-08-02T01:18:00;18.50;99.90
15630;DHT22;7914;50.842;0.166;2022-08-02T01:23:13;18.40;99.90
15630;DHT22;7914;50.842;0.166;2022-08-02T01:28:38;18.30;99.90
15630;DHT22;7914;50.842;0.166;2022-08-02T01:31:31;18.30;99.90
15630;DHT22;7914;50.842;0.166;2022-08-02T01:36:35;18.30;99.90
15630;DHT22;7914;50.842;0.166;2022-08-02T01:39:03;18.30;99.90
15630;DHT22;7914;50.842;0.166;2022-08-02T01:41:31;18.20;99.90
15630;DHT22;7914;50.842;0.166;2022-08-02T01:43:59;18.20;99.90
15630;DHT22;7914;50.842;0.166;2022-08-02T01:46:28;18.30;99.90
15630;DHT22;7914;50.842;0.166;2022-08-02T01:48:55;18.30;99.90
15630;DHT22;7914;50.842;0.166;2022-08-02T01:51:24;18.30;99.90
15630;DHT22;7914;50.842;0.166;2022-08-02T01:54:14;18.30;99.90
15630;DHT22;7914;50.842;0.166;2022-08-02T01:56:41;18.30;99.90
15630;DHT22;7914;50.842;0.166;2022-08-02T01:59:10;18.40;99.90
15630;DHT22;7914;50.842;0.166;2022-08-02T02:01:38;18.40;99.90
15630;DHT22;7914;50.842;0.166;2022-08-02T02:04:07;18.40;99.90
15630;DHT22;7914;50.842;0.166;2022-08-02T02:06:35;18.40;99.90
15630;DHT22;7914;50.842;0.166;2022-08-02T02:09:02;18.40;99.90
15630;DHT22;7914;50.842;0.166;2022-08-02T02:11:30;18.40;99.90
15630;DHT22;7914;50.842;0.166;2022-08-02T02:13:57;18.40;99.90
15630;DHT22;7914;50.842;0.166;2022-08-02T02:16:25;18.40;99.90
15630;DHT22;7914;50.842;0.166;2022-08-02T02:18:51;18.30;99.90
15630;DHT22;7914;50.842;0.166;2022-08-02T02:21:18;18.30;99.90
15630;DHT22;7914;50.842;0.166;2022-08-02T02:23:43;18.30;99.90
15630;DHT22;7914;50.842;0.166;2022-08-02T02:26:12;18.30;99.90
15630;DHT22;7914;50.842;0.166;2022-08-02T02:28:39;18.30;99.90
15630;DHT22;7914;50.842;0.166;2022-08-02T02:31:07;18.40;99.90
15630;DHT22;7914;50.842;0.166;2022-08-02T02:33:57;18.40;99.90
15630;DHT22;7914;50.842;0.166;2022-08-02T02:36:27;18.40;99.90
15630;DHT22;7914;50.842;0.166;2022-08-02T02:38:59;18.50;99.90
15630;DHT22;7914;50.842;0.166;2022-08-02T02:41:26;18.40;99.90
15630;DHT22;7914;50.842;0.166;2022-08-02T02:43:59;18.00;99.90
15630;DHT22;7914;50.842;0.166;2022-08-02T02:46:26;18.50;99.90
15630;DHT22;7914;50.842;0.166;2022-08-02T02:48:54;18.60;99.90
15630;DHT22;7914;50.842;0.166;2022-08-02T02:51:21;18.60;99.90
15630;DHT22;7914;50.842;0.166;2022-08-02T02:53:48;18.60;99.90
15630;DHT22;7914;50.842;0.166;2022-08-02T02:56:16;18.60;99.90
15630;DHT22;7914;50.842;0.166;2022-08-02T02:58:43;18.60;99.90
15630;DHT22;7914;50.842;0.166;2022-08-02T03:01:09;18.60;99.90
15630;DHT22;7914;50.842;0.166;2022-08-02T03:04:00;18.70;99.90
15630;DHT22;7914;50.842;0.166;2022-08-02T03:06:29;18.70;99.90
15630;DHT22;7914;50.842;0.166;2022-08-02T03:08:56;18.70;99.90
15630;DHT22;7914;50.842;0.166;2022-08-02T03:11:23;18.70;99.90
15630;DHT22;7914;50.842;0.166;2022-08-02T03:13:49;18.70;99.90
15630;DHT22;7914;50.842;0.166;2022-08-02T03:16:16;18.80;99.90
15630;DHT22;7914;50.842;0.166;2022-08-02T03:18:42;18.80;99.90
15630;DHT22;7914;50.842;0.166;2022-08-02T03:21:11;18.80;99.90
15630;DHT22;7914;50.842;0.166;2022-08-02T03:23:38;18.80;99.90
15630;DHT22;7914;50.842;0.166;2022-08-02T03:26:05;18.80;99.90
15630;DHT22;7914;50.842;0.166;2022-08-02T03:28:30;18.80;99.90
15630;DHT22;7914;50.842;0.166;2022-08-02T03:30:56;18.80;99.90
15630;DHT22;7914;50.842;0.166;2022-08-02T03:33:23;18.90;99.90
15630;DHT22;7914;50.842;0.166;2022-08-02T03:35:55;18.90;99.90
15630;DHT22;7914;50.842;0.166;2022-08-02T03:38:22;18.90;99.90
15630;DHT22;7914;50.842;0.166;2022-08-02T03:40:49;18.90;99.90
15630;DHT22;7914;50.842;0.166;2022-08-02T03:43:15;18.90;99.90
15630;DHT22;7914;50.842;0.166;2022-08-02T03:45:43;18.90;99.90
15630;DHT22;7914;50.842;0.166;2022-08-02T03:48:12;18.90;99.90
15630;DHT22;7914;50.842;0.166;2022-08-02T03:50:40;18.90;99.90
15630;DHT22;7914;50.842;0.166;2022-08-02T03:53:07;19.00;99.90
15630;DHT22;7914;50.842;0.166;2022-08-02T03:55:34;18.90;99.90
15630;DHT22;7914;50.842;0.166;2022-08-02T03:58:00;18.90;99.90
15630;DHT22;7914;50.842;0.166;2022-08-02T04:00:26;18.90;99.90
15630;DHT22;7914;50.842;0.166;2022-08-02T04:02:52;18.90;99.90
15630;DHT22;7914;50.842;0.166;2022-08-02T04:05:19;18.90;99.90
15630;DHT22;7914;50.842;0.166;2022-08-02T04:07:45;19.00;99.90
15630;DHT22;7914;50.842;0.166;2022-08-02T04:10:12;18.90;99.90
15630;DHT22;7914;50.842;0.166;2022-08-02T04:12:38;19.00;99.90
15630;DHT22;7914;50.842;0.166;2022-08-02T04:15:05;19.00;99.90
15630;DHT22;7914;50.842;0.166;2022-08-02T04:17:32;19.00;99.90
15630;DHT22;7914;50.842;0.166;2022-08-02T04:20:16;18.90;99.90
15630;DHT22;7914;50.842;0.166;2022-08-02T04:22:51;18.90;99.90
15630;DHT22;7914;50.842;0.166;2022-08-02T04:25:19;19.00;99.90
15630;DHT22;7914;50.842;0.166;2022-08-02T04:27:47;19.00;99.90
15630;DHT22;7914;50.842;0.166;2022-08-02T04:30:15;18.90;99.90
15630;DHT22;7914;50.842;0.166;2022-08-02T04:32:43;18.90;99.90
15630;DHT22;7914;50.842;0.166;2022-08-02T04:35:09;18.90;99.90
15630;DHT22;7914;50.842;0.166;2022-08-02T04:37:36;18.90;99.90
15630;DHT22;7914;50.842;0.166;2022-08-02T04:40:07;18.90;99.90
15630;DHT22;7914;50.842;0.166;2022-08-02T04:42:33;18.90;99.90
15630;DHT22;7914;50.842;0.166;2022-08-02T04:44:58;18.90;99.90
15630;DHT22;7914;50.842;0.166;2022-08-02T04:47:24;18.90;99.90
15630;DHT22;7914;50.842;0.166;2022-08-02T04:49:50;19.00;99.90
15630;DHT22;7914;50.842;0.166;2022-08-02T04:52:16;19.00;99.90
15630;DHT22;7914;50.842;0.166;2022-08-02T04:54:41;19.00;99.90
15630;DHT22;7914;50.842;0.166;2022-08-02T04:57:07;19.00;99.90
15630;DHT22;7914;50.842;0.166;2022-08-02T04:59:51;19.00;99.90
15630;DHT22;7914;50.842;0.166;2022-08-02T05:02:17;18.90;99.90
15630;DHT22;7914;50.842;0.166;2022-08-02T05:04:43;18.90;99.90
15630;DHT22;7914;50.842;0.166;2022-08-02T05:07:08;18.90;99.90
15630;DHT22;7914;50.842;0.166;2022-08-02T05:09:34;19.00;99.90
15630;DHT22;7914;50.842;0.166;2022-08-02T05:12:00;19.00;99.90
15630;DHT22;7914;50.842;0.166;2022-08-02T05:14:25;19.00;99.90
15630;DHT22;7914;50.842;0.166;2022-08-02T05:16:51;19.00;99.90
15630;DHT22;7914;50.842;0.166;2022-08-02T05:19:17;19.00;99.90
15630;DHT22;7914;50.842;0.166;2022-08-02T05:21:42;19.00;99.90
15630;DHT22;7914;50.842;0.166;2022-08-02T05:24:08;19.00;99.90
15630;DHT22;7914;50.842;0.166;2022-08-02T05:26:34;19.00;99.90
15630;DHT22;7914;50.842;0.166;2022-08-02T05:29:00;19.00;99.90
15630;DHT22;7914;50.842;0.166;2022-08-02T05:31:25;19.10;99.90
15630;DHT22;7914;50.842;0.166;2022-08-02T05:33:51;19.10;99.90
15630;DHT22;7914;50.842;0.166;2022-08-02T05:36:17;19.10;99.90
15630;DHT22;7914;50.842;0.166;2022-08-02T05:38:42;19.20;99.90
15630;DHT22;7914;50.842;0.166;2022-08-02T05:41:08;19.20;99.90
15630;DHT22;7914;50.842;0.166;2022-08-02T05:43:34;19.20;99.90
15630;DHT22;7914;50.842;0.166;2022-08-02T05:46:00;19.20;99.90
15630;DHT22;7914;50.842;0.166;2022-08-02T05:48:25;19.20;99.90
15630;DHT22;7914;50.842;0.166;2022-08-02T05:50:54;19.30;99.90
15630;DHT22;7914;50.842;0.166;2022-08-02T05:53:36;19.30;99.90
15630;DHT22;7914;50.842;0.166;2022-08-02T05:56:18;19.10;99.90
15630;DHT22;7914;50.842;0.166;2022-08-02T05:58:55;19.20;99.90
15630;DHT22;7914;50.842;0.166;2022-08-02T06:01:31;19.10;99.90
15630;DHT22;7914;50.842;0.166;2022-08-02T06:03:59;19.10;99.90
15630;DHT22;7914;50.842;0.166;2022-08-02T06:06:28;19.20;99.90
15630;DHT22;7914;50.842;0.166;2022-08-02T06:09:03;19.20;99.90
15630;DHT22;7914;50.842;0.166;2022-08-02T06:11:37;19.20;99.90
15630;DHT22;7914;50.842;0.166;2022-08-02T06:14:05;19.20;99.90
15630;DHT22;7914;50.842;0.166;2022-08-02T06:16:31;19.20;99.90
15630;DHT22;7914;50.842;0.166;2022-08-02T06:18:58;19.30;99.90
15630;DHT22;7914;50.842;0.166;2022-08-02T06:21:26;19.30;99.90
15630;DHT22;7914;50.842;0.166;2022-08-02T06:23:52;19.40;99.90
15630;DHT22;7914;50.842;0.166;2022-08-02T06:26:20;19.40;99.90
15630;DHT22;7914;50.842;0.166;2022-08-02T06:28:48;19.50;99.90
15630;DHT22;7914;50.842;0.166;2022-08-02T06:31:14;19.60;99.90
15630;DHT22;7914;50.842;0.166;2022-08-02T06:33:40;19.70;99.90
15630;DHT22;7914;50.842;0.166;2022-08-02T06:36:21;19.70;99.90
15630;DHT22;7914;50.842;0.166;2022-08-02T06:39:23;19.80;99.90
15630;DHT22;7914;50.842;0.166;2022-08-02T06:41:55;19.90;99.90
15630;DHT22;7914;50.842;0.166;2022-08-02T06:44:23;19.90;99.90
15630;DHT22;7914;50.842;0.166;2022-08-02T06:46:49;20.00;99.90
15630;DHT22;7914;50.842;0.166;2022-08-02T06:49:15;20.00;99.90
15630;DHT22;7914;50.842;0.166;2022-08-02T06:51:40;20.00;99.90
15630;DHT22;7914;50.842;0.166;2022-08-02T06:54:06;20.00;99.90
15630;DHT22;7914;50.842;0.166;2022-08-02T06:56:32;20.10;99.90
15630;DHT22;7914;50.842;0.166;2022-08-02T06:58:58;20.10;99.90
15630;DHT22;7914;50.842;0.166;2022-08-02T07:01:23;20.10;99.90
15630;DHT22;7914;50.842;0.166;2022-08-02T07:03:49;20.00;99.90
15630;DHT22;7914;50.842;0.166;2022-08-02T07:06:15;20.10;99.90
15630;DHT22;7914;50.842;0.166;2022-08-02T07:08:40;20.00;99.90
15630;DHT22;7914;50.842;0.166;2022-08-02T07:11:08;20.10;99.90
15630;DHT22;7914;50.842;0.166;2022-08-02T07:13:34;20.10;99.90
15630;DHT22;7914;50.842;0.166;2022-08-02T07:16:02;20.00;99.90
15630;DHT22;7914;50.842;0.166;2022-08-02T07:18:28;20.00;99.90
15630;DHT22;7914;50.842;0.166;2022-08-02T07:20:54;20.00;99.90
15630;DHT22;7914;50.842;0.166;2022-08-02T07:23:20;20.00;99.90
15630;DHT22;7914;50.842;0.166;2022-08-02T07:25:46;20.00;99.90
15630;DHT22;7914;50.842;0.166;2022-08-02T07:28:13;20.00;99.90
15630;DHT22;7914;50.842;0.166;2022-08-02T07:30:42;20.10;99.90
15630;DHT22;7914;50.842;0.166;2022-08-02T07:33:08;20.00;99.90
15630;DHT22;7914;50.842;0.166;2022-08-02T07:35:34;20.00;99.90
15630;DHT22;7914;50.842;0.166;2022-08-02T07:38:00;20.00;99.90
15630;DHT22;7914;50.842;0.166;2022-08-02T07:40:26;20.00;99.90
15630;DHT22;7914;50.842;0.166;2022-08-02T07:42:54;20.10;99.90
15630;DHT22;7914;50.842;0.166;2022-08-02T07:45:21;20.20;99.90
15630;DHT22;7914;50.842;0.166;2022-08-02T07:47:47;20.30;99.90
15630;DHT22;7914;50.842;0.166;2022-08-02T07:50:15;20.40;99.90
15630;DHT22;7914;50.842;0.166;2022-08-02T07:52:42;20.50;99.90
15630;DHT22;7914;50.842;0.166;2022-08-02T07:55:10;20.50;99.90
15630;DHT22;7914;50.842;0.166;2022-08-02T07:57:36;20.50;99.90
15630;DHT22;7914;50.842;0.166;2022-08-02T08:00:03;20.50;99.90
15630;DHT22;7914;50.842;0.166;2022-08-02T08:02:30;20.60;99.90
15630;DHT22;7914;50.842;0.166;2022-08-02T08:04:56;20.70;99.90
15630;DHT22;7914;50.842;0.166;2022-08-02T08:07:22;20.70;99.90
15630;DHT22;7914;50.842;0.166;2022-08-02T08:09:48;20.80;99.90
15630;DHT22;7914;50.842;0.166;2022-08-02T08:12:15;20.80;99.90
15630;DHT22;7914;50.842;0.166;2022-08-02T08:14:41;20.80;99.90
15630;DHT22;7914;50.842;0.166;2022-08-02T08:17:07;20.90;99.90
15630;DHT22;7914;50.842;0.166;2022-08-02T08:19:33;20.90;99.90
15630;DHT22;7914;50.842;0.166;2022-08-02T08:21:59;20.90;99.90
15630;DHT22;7914;50.842;0.166;2022-08-02T08:24:26;20.80;99.90
15630;DHT22;7914;50.842;0.166;2022-08-02T08:26:52;20.80;99.90
15630;DHT22;7914;50.842;0.166;2022-08-02T08:29:19;20.80;99.90
15630;DHT22;7914;50.842;0.166;2022-08-02T08:31:44;20.80;99.90
15630;DHT22;7914;50.842;0.166;2022-08-02T08:34:10;20.90;99.90
15630;DHT22;7914;50.842;0.166;2022-08-02T08:36:36;21.00;99.90
15630;DHT22;7914;50.842;0.166;2022-08-02T08:39:03;21.00;99.90
15630;DHT22;7914;50.842;0.166;2022-08-02T08:41:29;21.10;99.90
15630;DHT22;7914;50.842;0.166;2022-08-02T08:43:55;21.10;99.90
15630;DHT22;7914;50.842;0.166;2022-08-02T08:46:32;21.10;99.90
15630;DHT22;7914;50.842;0.166;2022-08-02T08:49:15;21.10;99.90
15630;DHT22;7914;50.842;0.166;2022-08-02T08:51:43;21.10;99.90
15630;DHT22;7914;50.842;0.166;2022-08-02T08:54:13;21.10;99.90
15630;DHT22;7914;50.842;0.166;2022-08-02T08:56:40;21.00;99.90
15630;DHT22;7914;50.842;0.166;2022-08-02T08:59:06;21.00;99.90
15630;DHT22;7914;50.842;0.166;2022-08-02T09:01:33;21.00;99.90
15630;DHT22;7914;50.842;0.166;2022-08-02T09:03:59;21.00;99.90
15630;DHT22;7914;50.842;0.166;2022-08-02T09:06:26;21.00;99.90
15630;DHT22;7914;50.842;0.166;2022-08-02T09:08:52;21.00;99.90
15630;DHT22;7914;50.842;0.166;2022-08-02T09:11:21;20.90;99.90
15630;DHT22;7914;50.842;0.166;2022-08-02T09:13:53;21.00;99.90
15630;DHT22;7914;50.842;0.166;2022-08-02T09:18:55;21.10;99.90
15630;DHT22;7914;50.842;0.166;2022-08-02T09:21:21;21.10;99.90
15630;DHT22;7914;50.842;0.166;2022-08-02T09:23:48;20.90;99.90
15630;DHT22;7914;50.842;0.166;2022-08-02T09:26:16;20.80;99.90
15630;DHT22;7914;50.842;0.166;2022-08-02T09:28:45;20.70;99.90
15630;DHT22;7914;50.842;0.166;2022-08-02T09:31:13;20.70;99.90
15630;DHT22;7914;50.842;0.166;2022-08-02T09:33:41;20.70;99.90
15630;DHT22;7914;50.842;0.166;2022-08-02T09:36:12;20.60;99.90
15630;DHT22;7914;50.842;0.166;2022-08-02T09:38:40;20.60;99.90
15630;DHT22;7914;50.842;0.166;2022-08-02T09:41:19;20.60;99.90
15630;DHT22;7914;50.842;0.166;2022-08-02T09:43:45;20.70;99.90
15630;DHT22;7914;50.842;0.166;2022-08-02T09:46:19;20.60;99.90
15630;DHT22;7914;50.842;0.166;2022-08-02T09:49:04;20.60;99.90
15630;DHT22;7914;50.842;0.166;2022-08-02T09:51:39;20.70;99.90
15630;DHT22;7914;50.842;0.166;2022-08-02T09:54:09;20.60;99.90
15630;DHT22;7914;50.842;0.166;2022-08-02T09:59:09;20.60;99.90
15630;DHT22;7914;50.842;0.166;2022-08-02T10:01:36;20.60;99.90
15630;DHT22;7914;50.842;0.166;2022-08-02T10:04:04;20.70;99.90
15630;DHT22;7914;50.842;0.166;2022-08-02T10:06:31;20.80;99.90
15630;DHT22;7914;50.842;0.166;2022-08-02T10:08:57;20.80;99.90
15630;DHT22;7914;50.842;0.166;2022-08-02T10:11:25;21.00;99.90
15630;DHT22;7914;50.842;0.166;2022-08-02T10:13:53;21.10;99.90
15630;DHT22;7914;50.842;0.166;2022-08-02T10:16:20;21.10;99.90
15630;DHT22;7914;50.842;0.166;2022-08-02T10:18:57;21.10;99.90
15630;DHT22;7914;50.842;0.166;2022-08-02T10:21:50;21.10;99.90
15630;DHT22;7914;50.842;0.166;2022-08-02T10:24:20;21.10;99.90
15630;DHT22;7914;50.842;0.166;2022-08-02T10:26:47;21.10;99.90
15630;DHT22;7914;50.842;0.166;2022-08-02T10:29:19;21.10;99.90
15630;DHT22;7914;50.842;0.166;2022-08-02T10:31:52;21.10;99.90
15630;DHT22;7914;50.842;0.166;2022-08-02T10:34:22;21.10;99.90
15630;DHT22;7914;50.842;0.166;2022-08-02T10:36:49;21.10;99.90
15630;DHT22;7914;50.842;0.166;2022-08-02T10:39:15;21.10;99.90
15630;DHT22;7914;50.842;0.166;2022-08-02T10:41:49;21.10;99.90
15630;DHT22;7914;50.842;0.166;2022-08-02T10:44:22;21.10;99.90
15630;DHT22;7914;50.842;0.166;2022-08-02T10:46:49;21.10;99.90
15630;DHT22;7914;50.842;0.166;2022-08-02T10:49:21;21.00;99.90
15630;DHT22;7914;50.842;0.166;2022-08-02T10:52:03;20.90;99.90
15630;DHT22;7914;50.842;0.166;2022-08-02T10:56:57;20.90;99.90
15630;DHT22;7914;50.842;0.166;2022-08-02T10:59:31;21.00;99.90
15630;DHT22;7914;50.842;0.166;2022-08-02T11:01:58;21.00;99.90
15630;DHT22;7914;50.842;0.166;2022-08-02T11:05:14;21.00;99.90
15630;DHT22;7914;50.842;0.166;2022-08-02T11:07:26;21.10;99.90
15630;DHT22;7914;50.842;0.166;2022-08-02T11:09:55;21.30;99.90
15630;DHT22;7914;50.842;0.166;2022-08-02T11:12:23;21.30;99.90
15630;DHT22;7914;50.842;0.166;2022-08-02T11:15:00;21.30;99.90
15630;DHT22;7914;50.842;0.166;2022-08-02T11:17:54;21.30;99.90
15630;DHT22;7914;50.842;0.166;2022-08-02T11:20:22;21.40;99.90
15630;DHT22;7914;50.842;0.166;2022-08-02T11:22:51;21.40;99.90
15630;DHT22;7914;50.842;0.166;2022-08-02T11:27:48;21.40;99.90
15630;DHT22;7914;50.842;0.166;2022-08-02T11:30:15;21.40;99.90
15630;DHT22;7914;50.842;0.166;2022-08-02T11:32:41;21.30;99.90
15630;DHT22;7914;50.842;0.166;2022-08-02T11:35:08;21.30;99.90
15630;DHT22;7914;50.842;0.166;2022-08-02T11:37:36;21.30;99.90
15630;DHT22;7914;50.842;0.166;2022-08-02T11:40:04;21.40;99.90
15630;DHT22;7914;50.842;0.166;2022-08-02T11:42:42;21.30;99.90
15630;DHT22;7914;50.842;0.166;2022-08-02T11:45:13;21.30;99.90
15630;DHT22;7914;50.842;0.166;2022-08-02T11:47:51;21.20;99.90
15630;DHT22;7914;50.842;0.166;2022-08-02T11:50:18;21.10;99.90
15630;DHT22;7914;50.842;0.166;2022-08-02T11:52:51;21.20;99.90
15630;DHT22;7914;50.842;0.166;2022-08-02T11:55:25;21.30;99.90
15630;DHT22;7914;50.842;0.166;2022-08-02T11:58:00;21.40;99.90
15630;DHT22;7914;50.842;0.166;2022-08-02T12:00:26;21.50;99.90
15630;DHT22;7914;50.842;0.166;2022-08-02T12:02:52;21.50;99.90
15630;DHT22;7914;50.842;0.166;2022-08-02T12:05:20;21.70;99.90
15630;DHT22;7914;50.842;0.166;2022-08-02T12:07:46;21.80;99.90
15630;DHT22;7914;50.842;0.166;2022-08-02T12:10:15;21.70;99.90
15630;DHT22;7914;50.842;0.166;2022-08-02T12:12:52;21.80;99.90
15630;DHT22;7914;50.842;0.166;2022-08-02T12:15:40;22.00;99.90
15630;DHT22;7914;50.842;0.166;2022-08-02T12:18:13;22.10;99.90
15630;DHT22;7914;50.842;0.166;2022-08-02T12:20:58;22.10;99.90
15630;DHT22;7914;50.842;0.166;2022-08-02T12:23:25;22.20;99.90
15630;DHT22;7914;50.842;0.166;2022-08-02T12:26:03;22.30;99.90
15630;DHT22;7914;50.842;0.166;2022-08-02T12:28:33;22.30;99.90
15630;DHT22;7914;50.842;0.166;2022-08-02T12:30:59;22.20;99.90
15630;DHT22;7914;50.842;0.166;2022-08-02T12:33:47;22.10;99.90
15630;DHT22;7914;50.842;0.166;2022-08-02T12:36:15;22.10;99.90
15630;DHT22;7914;50.842;0.166;2022-08-02T12:38:52;21.90;99.90
15630;DHT22;7914;50.842;0.166;2022-08-02T12:41:19;21.70;99.90
15630;DHT22;7914;50.842;0.166;2022-08-02T12:43:45;21.70;99.90
15630;DHT22;7914;50.842;0.166;2022-08-02T12:46:22;21.70;99.90
15630;DHT22;7914;50.842;0.166;2022-08-02T12:48:48;21.80;99.90
15630;DHT22;7914;50.842;0.166;2022-08-02T12:51:28;21.70;99.90
15630;DHT22;7914;50.842;0.166;2022-08-02T12:54:19;21.90;99.90
15630;DHT22;7914;50.842;0.166;2022-08-02T12:56:46;22.00;99.90
15630;DHT22;7914;50.842;0.166;2022-08-02T12:59:13;22.10;99.90
15630;DHT22;7914;50.842;0.166;2022-08-02T13:01:39;22.10;99.90
15630;DHT22;7914;50.842;0.166;2022-08-02T13:04:05;22.30;99.90
15630;DHT22;7914;50.842;0.166;2022-08-02T13:06:31;22.40;99.90
15630;DHT22;7914;50.842;0.166;2022-08-02T13:08:57;22.60;99.90
15630;DHT22;7914;50.842;0.166;2022-08-02T13:11:27;22.70;99.90
15630;DHT22;7914;50.842;0.166;2022-08-02T13:13:53;22.90;99.90
15630;DHT22;7914;50.842;0.166;2022-08-02T13:16:19;22.90;99.90
15630;DHT22;7914;50.842;0.166;2022-08-02T13:18:44;22.90;99.90
15630;DHT22;7914;50.842;0.166;2022-08-02T13:21:11;23.00;99.90
15630;DHT22;7914;50.842;0.166;2022-08-02T13:23:37;23.00;99.90
15630;DHT22;7914;50.842;0.166;2022-08-02T13:26:03;23.00;99.90
15630;DHT22;7914;50.842;0.166;2022-08-02T13:28:29;22.90;99.90
15630;DHT22;7914;50.842;0.166;2022-08-02T13:30:55;22.90;99.90
15630;DHT22;7914;50.842;0.166;2022-08-02T13:33:21;22.90;99.90
15630;DHT22;7914;50.842;0.166;2022-08-02T13:35:47;23.00;99.90
15630;DHT22;7914;50.842;0.166;2022-08-02T13:38:13;23.00;99.90
15630;DHT22;7914;50.842;0.166;2022-08-02T13:40:39;23.10;99.90
15630;DHT22;7914;50.842;0.166;2022-08-02T13:43:30;23.10;99.90
15630;DHT22;7914;50.842;0.166;2022-08-02T13:45:58;23.30;99.90
15630;DHT22;7914;50.842;0.166;2022-08-02T13:48:23;23.30;99.90
15630;DHT22;7914;50.842;0.166;2022-08-02T13:50:49;23.30;99.90
15630;DHT22;7914;50.842;0.166;2022-08-02T13:53:15;23.40;99.90
15630;DHT22;7914;50.842;0.166;2022-08-02T13:55:40;23.50;99.90
15630;DHT22;7914;50.842;0.166;2022-08-02T13:58:06;23.60;99.90
15630;DHT22;7914;50.842;0.166;2022-08-02T14:00:32;23.70;99.90
15630;DHT22;7914;50.842;0.166;2022-08-02T14:02:58;23.70;99.90
15630;DHT22;7914;50.842;0.166;2022-08-02T14:05:23;23.70;99.90
15630;DHT22;7914;50.842;0.166;2022-08-02T14:07:56;23.60;99.90
15630;DHT22;7914;50.842;0.166;2022-08-02T14:10:21;23.40;99.90
15630;DHT22;7914;50.842;0.166;2022-08-02T14:12:47;23.30;99.90
15630;DHT22;7914;50.842;0.166;2022-08-02T14:15:13;23.20;99.90
15630;DHT22;7914;50.842;0.166;2022-08-02T14:17:39;23.10;99.90
15630;DHT22;7914;50.842;0.166;2022-08-02T14:20:05;23.00;99.90
15630;DHT22;7914;50.842;0.166;2022-08-02T14:22:31;23.00;99.90
15630;DHT22;7914;50.842;0.166;2022-08-02T14:24:56;23.10;99.90
15630;DHT22;7914;50.842;0.166;2022-08-02T14:27:22;23.20;99.90
15630;DHT22;7914;50.842;0.166;2022-08-02T14:29:48;23.30;99.90
15630;DHT22;7914;50.842;0.166;2022-08-02T14:32:16;23.40;99.90
15630;DHT22;7914;50.842;0.166;2022-08-02T14:34:42;23.40;99.90
15630;DHT22;7914;50.842;0.166;2022-08-02T14:37:09;23.40;99.90
15630;DHT22;7914;50.842;0.166;2022-08-02T14:39:35;23.30;99.90
15630;DHT22;7914;50.842;0.166;2022-08-02T14:42:01;23.20;99.90
15630;DHT22;7914;50.842;0.166;2022-08-02T14:44:27;23.30;99.90
15630;DHT22;7914;50.842;0.166;2022-08-02T14:46:53;23.30;99.90
15630;DHT22;7914;50.842;0.166;2022-08-02T14:49:19;23.40;99.90
15630;DHT22;7914;50.842;0.166;2022-08-02T14:51:45;23.60;99.90
15630;DHT22;7914;50.842;0.166;2022-08-02T14:54:11;23.50;99.90
15630;DHT22;7914;50.842;0.166;2022-08-02T14:56:37;23.60;99.90
15630;DHT22;7914;50.842;0.166;2022-08-02T14:59:03;23.60;99.90
15630;DHT22;7914;50.842;0.166;2022-08-02T15:01:29;23.70;99.90
15630;DHT22;7914;50.842;0.166;2022-08-02T15:03:56;23.70;99.90
15630;DHT22;7914;50.842;0.166;2022-08-02T15:06:22;23.80;99.90
15630;DHT22;7914;50.842;0.166;2022-08-02T15:08:48;23.70;99.90
15630;DHT22;7914;50.842;0.166;2022-08-02T15:11:14;23.60;99.90
15630;DHT22;7914;50.842;0.166;2022-08-02T15:13:39;23.40;99.90
15630;DHT22;7914;50.842;0.166;2022-08-02T15:16:05;23.50;99.90
15630;DHT22;7914;50.842;0.166;2022-08-02T15:18:31;23.50;99.90
15630;DHT22;7914;50.842;0.166;2022-08-02T15:20:59;23.40;99.90
15630;DHT22;7914;50.842;0.166;2022-08-02T15:23:28;23.30;99.90
15630;DHT22;7914;50.842;0.166;2022-08-02T15:25:54;23.40;99.90
15630;DHT22;7914;50.842;0.166;2022-08-02T15:28:20;23.50;99.90
15630;DHT22;7914;50.842;0.166;2022-08-02T15:30:46;23.40;99.90
15630;DHT22;7914;50.842;0.166;2022-08-02T15:33:12;23.50;99.90
15630;DHT22;7914;50.842;0.166;2022-08-02T15:35:37;23.40;99.90
15630;DHT22;7914;50.842;0.166;2022-08-02T15:38:03;23.40;99.90
15630;DHT22;7914;50.842;0.166;2022-08-02T15:40:29;23.50;99.90
15630;DHT22;7914;50.842;0.166;2022-08-02T15:42:55;23.60;99.90
15630;DHT22;7914;50.842;0.166;2022-08-02T15:45:22;23.60;99.90
15630;DHT22;7914;50.842;0.166;2022-08-02T15:47:49;23.50;99.90
15630;DHT22;7914;50.842;0.166;2022-08-02T15:50:15;23.50;99.90
15630;DHT22;7914;50.842;0.166;2022-08-02T15:52:41;23.40;99.90
15630;DHT22;7914;50.842;0.166;2022-08-02T15:55:07;23.50;99.90
15630;DHT22;7914;50.842;0.166;2022-08-02T15:57:33;23.60;99.90
15630;DHT22;7914;50.842;0.166;2022-08-02T15:59:59;23.70;99.90
15630;DHT22;7914;50.842;0.166;2022-08-02T16:02:24;23.80;99.90
15630;DHT22;7914;50.842;0.166;2022-08-02T16:04:50;23.80;99.90
15630;DHT22;7914;50.842;0.166;2022-08-02T16:07:16;23.90;99.90
15630;DHT22;7914;50.842;0.166;2022-08-02T16:09:41;24.00;99.90
15630;DHT22;7914;50.842;0.166;2022-08-02T16:12:07;24.00;99.90